createdAt,value
2023-02-23T00:00:21.235Z,96652.16
2023-02-23T00:01:29.824Z,96647.59
2023-02-23T00:02:31.459Z,96658.91
2023-02-23T00:03:33.049Z,96653.94
2023-02-23T00:04:35.752Z,96647.44
2023-02-23T00:05:37.962Z,96644.94
2023-02-23T00:06:39.600Z,96652.97
2023-02-23T00:07:45.804Z,96650.28
2023-02-23T00:08:52.181Z,96657.19
2023-02-23T00:09:53.702Z,96652.97
2023-02-23T00:10:58.676Z,96654.50
2023-02-23T00:12:00.231Z,96657.19
2023-02-23T00:13:01.819Z,96660.63
2023-02-23T00:14:03.967Z,96660.97
2023-02-23T00:15:07.574Z,96656.41
2023-02-23T00:16:17.653Z,96659.53
2023-02-23T00:17:19.233Z,96652.31
2023-02-23T00:18:21.045Z,96655.75
2023-02-23T00:19:24.902Z,96651.22
2023-02-23T00:20:29.759Z,96659.22
2023-02-23T00:21:34.680Z,96650.72
2023-02-23T00:22:36.226Z,96655.63
2023-02-23T00:23:38.765Z,96657.06
2023-02-23T00:24:42.374Z,96659.25
2023-02-23T00:25:46.292Z,96654.56
2023-02-23T00:26:48.668Z,96659.78
2023-02-23T00:27:51.770Z,96651.47
2023-02-23T00:28:54.371Z,96654.78
2023-02-23T00:29:56.452Z,96657.91
2023-02-23T00:30:59.850Z,96657.91
2023-02-23T00:32:01.595Z,96655.38
2023-02-23T00:33:03.472Z,96653.84
2023-02-23T00:34:06.017Z,96658.72
2023-02-23T00:35:12.646Z,96660.47
2023-02-23T00:36:15.894Z,96653.41
2023-02-23T00:37:18.871Z,96652.16
2023-02-23T00:38:20.406Z,96654.22
2023-02-23T00:39:25.092Z,96656.69
2023-02-23T00:40:26.699Z,96655.25
2023-02-23T00:41:29.761Z,96654.94
2023-02-23T00:42:32.343Z,96654.47
2023-02-23T00:43:38.284Z,96650.56
2023-02-23T00:44:40.662Z,96656.88
2023-02-23T00:45:42.396Z,96650.13
2023-02-23T00:46:45.417Z,96655.66
2023-02-23T00:47:48.811Z,96654.75
2023-02-23T00:48:51.361Z,96647.03
2023-02-23T00:49:52.969Z,96650.66
2023-02-23T00:51:02.407Z,96654.13
2023-02-23T00:52:05.062Z,96651.13
2023-02-23T00:53:06.623Z,96656.94
2023-02-23T00:54:08.667Z,96651.28
2023-02-23T00:55:12.727Z,96657.38
2023-02-23T00:56:15.982Z,96654.41
2023-02-23T00:57:17.525Z,96655.19
2023-02-23T00:58:19.767Z,96655.19
2023-02-23T00:59:21.405Z,96660.53
2023-02-23T01:00:23.016Z,96657.38
2023-02-23T01:01:25.558Z,96654.25
2023-02-23T01:02:30.681Z,96654.56
2023-02-23T01:03:32.293Z,96650.84
2023-02-23T01:04:33.849Z,96657.91
2023-02-23T01:05:35.587Z,96659.03
2023-02-23T01:06:38.158Z,96652.91
2023-02-23T01:07:40.788Z,96654.94
2023-02-23T01:08:44.648Z,96653.41
2023-02-23T01:09:46.287Z,96656.88
2023-02-23T01:10:53.093Z,96650.44
2023-02-23T01:11:57.066Z,96652.78
2023-02-23T01:12:58.650Z,96651.09
2023-02-23T01:14:01.290Z,96648.44
2023-02-23T01:15:03.616Z,96644.38
2023-02-23T01:16:11.422Z,96652.38
2023-02-23T01:17:13.082Z,96645.47
2023-02-23T01:18:16.990Z,96648.13
2023-02-23T01:19:18.809Z,96644.66
2023-02-23T01:20:20.566Z,96651.72
2023-02-23T01:21:26.959Z,96645.63
2023-02-23T01:22:28.498Z,96652.66
2023-02-23T01:23:30.035Z,96648.13
2023-02-23T01:24:31.619Z,96647.34
2023-02-23T01:25:34.096Z,96656.44
2023-02-23T01:26:39.020Z,96651.59
2023-02-23T01:27:41.619Z,96654.72
2023-02-23T01:28:43.228Z,96643.88
2023-02-23T01:29:44.810Z,96649.53
2023-02-23T01:30:46.497Z,96647.50
2023-02-23T01:31:51.221Z,96646.53
2023-02-23T01:32:53.047Z,96648.56
2023-02-23T01:33:55.525Z,96640.75
2023-02-23T01:34:57.060Z,96646.22
2023-02-23T01:36:00.161Z,96651.56
2023-02-23T01:37:01.773Z,96644.63
2023-02-23T01:38:03.921Z,96645.44
2023-02-23T01:39:07.870Z,96646.06
2023-02-23T01:40:15.342Z,96644.19
2023-02-23T01:41:17.481Z,96644.63
2023-02-23T01:42:19.319Z,96643.84
2023-02-23T01:43:31.206Z,96647.00
2023-02-23T01:44:32.652Z,96645.56
2023-02-23T01:45:35.672Z,96648.72
2023-02-23T01:46:39.938Z,96646.34
2023-02-23T01:47:41.548Z,96650.91
2023-02-23T01:48:43.176Z,96645.25
2023-02-23T01:49:44.879Z,96650.91
2023-02-23T01:50:58.213Z,96653.13
2023-02-23T01:52:04.988Z,96647.00
2023-02-23T01:53:06.690Z,96648.13
2023-02-23T01:54:16.001Z,96647.16
2023-02-23T01:55:24.118Z,96644.03
2023-02-23T01:56:31.700Z,96644.03
2023-02-23T01:57:33.275Z,96642.47
2023-02-23T01:58:34.953Z,96644.34
2023-02-23T01:59:43.539Z,96643.56
2023-02-23T02:00:50.146Z,96642.78
2023-02-23T02:01:51.766Z,96641.69
2023-02-23T02:02:53.568Z,96647.81
2023-02-23T02:03:58.425Z,96640.28
2023-02-23T02:05:02.425Z,96644.50
2023-02-23T02:06:07.195Z,96643.41
2023-02-23T02:07:09.133Z,96636.19
2023-02-23T02:08:11.135Z,96633.50
2023-02-23T02:09:19.590Z,96640.41
2023-02-23T02:10:39.480Z,96633.81
2023-02-23T02:11:44.529Z,96638.22
2023-02-23T02:12:53.818Z,96641.38
2023-02-23T02:13:59.808Z,96636.66
2023-02-23T02:15:04.934Z,96639.66
2023-02-23T02:16:18.950Z,96637.94
2023-02-23T02:18:11.282Z,96633.06
2023-02-23T02:19:24.975Z,96637.16
2023-02-23T02:20:38.544Z,96638.38
2023-02-23T02:22:01.826Z,96636.50
2023-02-23T02:23:15.484Z,96641.53
2023-02-23T02:24:37.713Z,96640.75
2023-02-23T02:25:57.878Z,96641.19
2023-02-23T02:27:36.467Z,96643.56
2023-02-23T02:28:43.980Z,96644.50
2023-02-23T02:30:16.561Z,96646.22
2023-02-23T02:31:49.677Z,96644.53
2023-02-23T02:33:11.255Z,96641.22
2023-02-23T02:34:42.528Z,96646.72
2023-02-23T02:36:01.578Z,96639.81
2023-02-23T02:37:12.139Z,96645.91
2023-02-23T02:38:26.114Z,96639.19
2023-02-23T02:39:46.726Z,96648.44
2023-02-23T02:41:14.119Z,96643.75
2023-02-23T02:42:39.957Z,96643.88
2023-02-23T02:43:57.604Z,96644.06
2023-02-23T02:45:25.944Z,96643.72
2023-02-23T02:46:32.362Z,96646.41
2023-02-23T02:47:50.506Z,96646.41
2023-02-23T02:49:12.088Z,96650.34
2023-02-23T02:50:50.136Z,96644.22
2023-02-23T02:52:15.824Z,96650.34
2023-02-23T02:53:47.446Z,96647.19
2023-02-23T02:54:53.590Z,96645.47
2023-02-23T02:56:00.394Z,96650.66
2023-02-23T02:57:04.493Z,96649.06
2023-02-23T02:58:08.144Z,96645.63
2023-02-23T02:59:32.803Z,96645.31
2023-02-23T03:01:03.627Z,96652.22
2023-02-23T03:02:24.782Z,96649.56
2023-02-23T03:03:50.779Z,96644.97
2023-02-23T03:05:10.662Z,96644.69
2023-02-23T03:06:30.859Z,96647.03
2023-02-23T03:08:00.263Z,96647.81
2023-02-23T03:09:47.717Z,96644.06
2023-02-23T03:11:24.842Z,96650.16
2023-02-23T03:12:58.427Z,96644.06
2023-02-23T03:14:49.293Z,96648.75
2023-02-23T03:16:18.523Z,96654.25
2023-02-23T03:17:52.528Z,96651.13
2023-02-23T03:19:12.688Z,96650.94
2023-02-23T03:20:51.273Z,96653.94
2023-02-23T03:22:20.499Z,96655.34
2023-02-23T03:23:45.911Z,96653.75
2023-02-23T03:25:17.900Z,96657.56
2023-02-23T03:26:59.454Z,96656.59
2023-02-23T03:28:45.026Z,96654.84
2023-02-23T03:30:19.643Z,96655.47
2023-02-23T03:31:55.886Z,96656.91
2023-02-23T03:33:21.459Z,96649.16
2023-02-23T03:34:51.944Z,96654.84
2023-02-23T03:36:19.069Z,96657.53
2023-02-23T03:37:51.222Z,96653.94
2023-02-23T03:39:33.233Z,96662.38
2023-02-23T03:40:57.397Z,96658.75
2023-02-23T03:42:21.164Z,96661.25
2023-02-23T03:43:46.554Z,96664.56
2023-02-23T03:45:08.996Z,96665.16
2023-02-23T03:46:32.928Z,96668.13
2023-02-23T03:47:58.353Z,96669.06
2023-02-23T03:49:23.345Z,96666.81
2023-02-23T03:50:56.502Z,96670.97
2023-02-23T03:52:24.263Z,96666.63
2023-02-23T03:53:50.593Z,96665.41
2023-02-23T03:55:16.655Z,96670.59
2023-02-23T03:56:39.157Z,96669.38
2023-02-23T03:58:01.623Z,96671.88
2023-02-23T03:59:25.516Z,96673.63
2023-02-23T04:00:55.583Z,96670.22
2023-02-23T04:02:18.144Z,96669.97
2023-02-23T04:03:40.440Z,96667.19
2023-02-23T04:05:03.461Z,96670.63
2023-02-23T04:06:27.096Z,96672.69
2023-02-23T04:07:48.268Z,96670.72
2023-02-23T04:09:09.515Z,96675.59
2023-02-23T04:10:30.532Z,96675.94
2023-02-23T04:12:09.237Z,96678.75
2023-02-23T04:13:24.176Z,96681.44
2023-02-23T04:14:39.717Z,96678.47
2023-02-23T04:15:49.111Z,96680.22
2023-02-23T04:16:50.930Z,96677.41
2023-02-23T04:17:53.865Z,96683.09
2023-02-23T04:18:55.825Z,96682.94
2023-02-23T04:19:57.372Z,96681.84
2023-02-23T04:20:59.671Z,96684.19
2023-02-23T04:22:01.236Z,96676.53
2023-02-23T04:23:02.855Z,96678.88
2023-02-23T04:24:04.637Z,96674.81
2023-02-23T04:25:08.984Z,96670.56
2023-02-23T04:26:10.603Z,96678.06
2023-02-23T04:27:13.631Z,96683.41
2023-02-23T04:28:16.154Z,96679.66
2023-02-23T04:29:17.701Z,96680.16
2023-02-23T04:30:20.714Z,96679.50
2023-02-23T04:31:25.128Z,96675.28
2023-02-23T04:32:27.381Z,96681.22
2023-02-23T04:33:29.087Z,96684.97
2023-02-23T04:34:30.660Z,96681.84
2023-02-23T04:35:32.275Z,96692.50
2023-02-23T04:36:34.338Z,96684.03
2023-02-23T04:37:35.963Z,96693.91
2023-02-23T04:38:37.689Z,96686.22
2023-02-23T04:39:39.533Z,96692.16
2023-02-23T04:40:41.113Z,96685.25
2023-02-23T04:41:42.791Z,96690.88
2023-02-23T04:42:44.489Z,96694.31
2023-02-23T04:43:46.090Z,96687.09
2023-02-23T04:44:47.676Z,96696.44
2023-02-23T04:45:49.478Z,96692.00
2023-02-23T04:46:51.110Z,96688.22
2023-02-23T04:47:52.845Z,96694.03
2023-02-23T04:48:54.381Z,96696.63
2023-02-23T04:49:56.022Z,96695.34
2023-02-23T04:50:57.647Z,96695.69
2023-02-23T04:51:59.902Z,96690.16
2023-02-23T04:53:01.595Z,96691.50
2023-02-23T04:54:04.571Z,96694.72
2023-02-23T04:55:07.278Z,96697.50
2023-02-23T04:56:08.882Z,96695.75
2023-02-23T04:57:10.877Z,96699.50
2023-02-23T04:58:13.843Z,96695.75
2023-02-23T04:59:15.537Z,96696.53
2023-02-23T05:00:18.724Z,96689.84
2023-02-23T05:01:22.421Z,96698.31
2023-02-23T05:02:25.127Z,96697.69
2023-02-23T05:03:27.229Z,96699.25
2023-02-23T05:04:29.436Z,96704.25
2023-02-23T05:05:31.536Z,96697.56
2023-02-23T05:06:33.128Z,96704.94
2023-02-23T05:07:36.103Z,96699.00
2023-02-23T05:08:37.603Z,96703.72
2023-02-23T05:09:40.513Z,96702.00
2023-02-23T05:10:42.775Z,96701.44
2023-02-23T05:11:44.376Z,96696.56
2023-02-23T05:12:46.677Z,96699.97
2023-02-23T05:13:48.257Z,96700.84
2023-02-23T05:14:50.043Z,96705.91
2023-02-23T05:15:56.574Z,96703.47
2023-02-23T05:16:58.150Z,96707.03
2023-02-23T05:17:59.686Z,96709.66
2023-02-23T05:19:01.618Z,96709.09
2023-02-23T05:20:03.385Z,96713.63
2023-02-23T05:21:08.087Z,96710.88
2023-02-23T05:22:12.570Z,96711.00
2023-02-23T05:23:14.227Z,96712.19
2023-02-23T05:24:17.290Z,96717.59
2023-02-23T05:25:19.097Z,96714.06
2023-02-23T05:26:20.671Z,96724.28
2023-02-23T05:27:22.255Z,96721.56
2023-02-23T05:28:23.827Z,96726.69
2023-02-23T05:29:25.344Z,96717.81
2023-02-23T05:30:26.986Z,96722.81
2023-02-23T05:31:28.916Z,96728.78
2023-02-23T05:32:30.552Z,96723.28
2023-02-23T05:33:33.386Z,96724.09
2023-02-23T05:34:35.398Z,96722.31
2023-02-23T05:35:40.567Z,96727.63
2023-02-23T05:36:42.314Z,96726.22
2023-02-23T05:37:44.696Z,96728.03
2023-02-23T05:38:47.158Z,96729.81
2023-02-23T05:39:48.847Z,96728.69
2023-02-23T05:40:50.449Z,96729.22
2023-02-23T05:41:52.556Z,96736.09
2023-02-23T05:42:59.200Z,96730.59
2023-02-23T05:44:01.591Z,96728.41
2023-02-23T05:45:04.972Z,96736.63
2023-02-23T05:46:12.008Z,96736.81
2023-02-23T05:47:13.648Z,96736.22
2023-02-23T05:48:15.254Z,96739.38
2023-02-23T05:49:16.834Z,96740.28
2023-02-23T05:50:18.749Z,96740.50
2023-02-23T05:51:20.608Z,96749.75
2023-02-23T05:52:22.521Z,96739.63
2023-02-23T05:53:24.089Z,96749.28
2023-02-23T05:54:26.072Z,96746.72
2023-02-23T05:55:28.284Z,96748.41
2023-02-23T05:56:29.887Z,96745.53
2023-02-23T05:57:31.582Z,96745.31
2023-02-23T05:58:33.166Z,96744.50
2023-02-23T05:59:34.739Z,96752.25
2023-02-23T06:00:36.279Z,96755.47
2023-02-23T06:01:39.376Z,96754.00
2023-02-23T06:02:41.921Z,96755.47
2023-02-23T06:03:44.858Z,96759.88
2023-02-23T06:04:47.147Z,96755.81
2023-02-23T06:05:57.648Z,96755.22
2023-02-23T06:06:59.255Z,96762.28
2023-02-23T06:08:00.818Z,96766.72
2023-02-23T06:09:03.595Z,96766.59
2023-02-23T06:10:06.330Z,96769.13
2023-02-23T06:11:08.384Z,96762.91
2023-02-23T06:12:09.931Z,96772.63
2023-02-23T06:13:12.033Z,96768.28
2023-02-23T06:14:13.764Z,96765.81
2023-02-23T06:15:15.351Z,96769.97
2023-02-23T06:16:17.096Z,96760.94
2023-02-23T06:17:18.773Z,96766.59
2023-02-23T06:18:21.838Z,96767.59
2023-02-23T06:19:23.402Z,96761.63
2023-02-23T06:20:25.042Z,96762.59
2023-02-23T06:21:26.591Z,96765.75
2023-02-23T06:22:28.155Z,96765.13
2023-02-23T06:23:30.690Z,96760.59
2023-02-23T06:24:32.439Z,96766.06
2023-02-23T06:25:34.270Z,96766.28
2023-02-23T06:26:35.819Z,96764.19
2023-02-23T06:27:37.338Z,96769.50
2023-02-23T06:28:38.960Z,96766.16
2023-02-23T06:29:40.552Z,96768.97
2023-02-23T06:30:42.282Z,96774.28
2023-02-23T06:31:43.993Z,96775.19
2023-02-23T06:32:45.627Z,96773.50
2023-02-23T06:33:48.381Z,96776.78
2023-02-23T06:34:50.340Z,96777.25
2023-02-23T06:35:52.616Z,96782.06
2023-02-23T06:36:54.158Z,96774.94
2023-02-23T06:37:55.807Z,96776.03
2023-02-23T06:38:58.623Z,96775.41
2023-02-23T06:40:00.382Z,96776.16
2023-02-23T06:41:08.697Z,96775.41
2023-02-23T06:42:10.201Z,96778.56
2023-02-23T06:43:11.895Z,96778.06
2023-02-23T06:44:13.696Z,96776.63
2023-02-23T06:45:15.219Z,96777.91
2023-02-23T06:46:16.800Z,96778.19
2023-02-23T06:47:18.598Z,96776.03
2023-02-23T06:48:20.164Z,96771.25
2023-02-23T06:49:21.752Z,96772.78
2023-02-23T06:50:23.321Z,96772.03
2023-02-23T06:51:24.943Z,96773.75
2023-02-23T06:52:26.511Z,96781.44
2023-02-23T06:53:28.221Z,96777.44
2023-02-23T06:54:29.780Z,96775.91
2023-02-23T06:55:31.382Z,96775.78
2023-02-23T06:56:32.944Z,96770.63
2023-02-23T06:57:34.612Z,96771.72
2023-02-23T06:58:36.158Z,96772.44
2023-02-23T06:59:37.882Z,96774.56
2023-02-23T07:00:43.015Z,96771.41
2023-02-23T07:01:44.828Z,96771.66
2023-02-23T07:02:46.507Z,96769.38
2023-02-23T07:03:48.491Z,96777.09
2023-02-23T07:04:50.120Z,96776.94
2023-02-23T07:05:52.720Z,96768.63
2023-02-23T07:06:54.274Z,96769.91
2023-02-23T07:07:55.894Z,96768.88
2023-02-23T07:08:58.380Z,96779.72
2023-02-23T07:09:59.961Z,96771.63
2023-02-23T07:11:07.544Z,96773.41
2023-02-23T07:12:10.305Z,96760.75
2023-02-23T07:13:14.780Z,96767.66
2023-02-23T07:14:26.215Z,96768.00
2023-02-23T07:15:28.331Z,96762.00
2023-02-23T07:16:30.002Z,96763.88
2023-02-23T07:17:31.622Z,96764.66
2023-02-23T07:18:33.329Z,96765.94
2023-02-23T07:19:34.858Z,96769.72
2023-02-23T07:20:36.439Z,96765.94
2023-02-23T07:21:38.027Z,96764.50
2023-02-23T07:22:40.076Z,96759.78
2023-02-23T07:23:41.738Z,96762.50
2023-02-23T07:24:43.313Z,96763.44
2023-02-23T07:25:45.340Z,96759.81
2023-02-23T07:26:47.425Z,96761.84
2023-02-23T07:27:49.164Z,96764.78
2023-02-23T07:28:52.230Z,96763.03
2023-02-23T07:29:54.910Z,96765.38
2023-02-23T07:30:57.825Z,96758.72
2023-02-23T07:31:59.547Z,96759.31
2023-02-23T07:33:01.135Z,96766.97
2023-02-23T07:34:02.711Z,96755.06
2023-02-23T07:35:05.388Z,96760.53
2023-02-23T07:36:07.383Z,96756.22
2023-02-23T07:37:08.924Z,96758.47
2023-02-23T07:38:10.442Z,96753.09
2023-02-23T07:39:12.924Z,96755.50
2023-02-23T07:40:16.325Z,96754.88
2023-02-23T07:41:18.337Z,96749.97
2023-02-23T07:42:20.063Z,96752.03
2023-02-23T07:43:22.683Z,96749.25
2023-02-23T07:44:24.299Z,96749.53
2023-02-23T07:45:25.852Z,96752.03
2023-02-23T07:46:27.501Z,96746.81
2023-02-23T07:47:31.181Z,96750.75
2023-02-23T07:48:33.318Z,96743.94
2023-02-23T07:49:34.931Z,96740.50
2023-02-23T07:50:36.465Z,96736.59
2023-02-23T07:51:39.345Z,96743.31
2023-02-23T07:52:43.216Z,96744.22
2023-02-23T07:53:45.169Z,96747.81
2023-02-23T07:54:46.736Z,96743.63
2023-02-23T07:55:56.462Z,96743.63
2023-02-23T07:56:58.685Z,96744.16
2023-02-23T07:58:00.230Z,96741.69
2023-02-23T07:59:02.051Z,96745.72
2023-02-23T08:00:05.901Z,96743.00
2023-02-23T08:01:08.812Z,96745.22
2023-02-23T08:02:13.148Z,96740.63
2023-02-23T08:03:14.713Z,96738.47
2023-02-23T08:04:16.283Z,96733.41
2023-02-23T08:05:17.880Z,96734.09
2023-02-23T08:06:20.024Z,96729.41
2023-02-23T08:07:22.473Z,96731.66
2023-02-23T08:08:24.321Z,96731.13
2023-02-23T08:09:25.860Z,96724.53
2023-02-23T08:10:27.468Z,96724.72
2023-02-23T08:11:29.165Z,96716.91
2023-02-23T08:12:33.721Z,96723.84
2023-02-23T08:13:37.218Z,96720.94
2023-02-23T08:14:38.781Z,96725.59
2023-02-23T08:15:41.038Z,96711.09
2023-02-23T08:16:42.805Z,96722.50
2023-02-23T08:17:44.376Z,96716.47
2023-02-23T08:18:46.274Z,96717.38
2023-02-23T08:19:48.010Z,96723.31
2023-02-23T08:20:49.749Z,96717.38
2023-02-23T08:21:51.374Z,96718.44
2023-02-23T08:22:57.047Z,96711.50
2023-02-23T08:23:58.907Z,96718.31
2023-02-23T08:25:00.487Z,96722.00
2023-02-23T08:26:02.555Z,96711.72
2023-02-23T08:27:04.250Z,96714.91
2023-02-23T08:28:06.971Z,96715.88
2023-02-23T08:29:09.082Z,96718.31
2023-02-23T08:30:14.141Z,96709.91
2023-02-23T08:31:18.863Z,96719.28
2023-02-23T08:32:21.320Z,96716.00
2023-02-23T08:33:23.005Z,96710.22
2023-02-23T08:34:24.871Z,96713.53
2023-02-23T08:35:26.526Z,96709.69
2023-02-23T08:36:28.170Z,96708.47
2023-02-23T08:37:30.083Z,96708.66
2023-02-23T08:38:31.721Z,96699.88
2023-02-23T08:39:33.771Z,96715.50
2023-02-23T08:40:35.374Z,96709.63
2023-02-23T08:41:37.032Z,96705.25
2023-02-23T08:42:38.606Z,96705.78
2023-02-23T08:43:40.172Z,96704.94
2023-02-23T08:44:41.698Z,96710.13
2023-02-23T08:45:43.259Z,96711.19
2023-02-23T08:46:45.881Z,96704.69
2023-02-23T08:47:47.621Z,96705.38
2023-02-23T08:48:49.221Z,96705.19
2023-02-23T08:49:51.176Z,96706.84
2023-02-23T08:50:57.462Z,96700.94
2023-02-23T08:51:59.036Z,96708.91
2023-02-23T08:53:00.615Z,96707.94
2023-02-23T08:54:02.264Z,96701.44
2023-02-23T08:55:04.649Z,96709.63
2023-02-23T08:56:07.655Z,96702.94
2023-02-23T08:57:11.621Z,96698.63
2023-02-23T08:58:14.054Z,96697.91
2023-02-23T08:59:15.717Z,96698.34
2023-02-23T09:00:17.768Z,96699.81
2023-02-23T09:01:22.187Z,96697.31
2023-02-23T09:02:24.833Z,96697.47
2023-02-23T09:03:30.200Z,96702.50
2023-02-23T09:04:35.198Z,96704.59
2023-02-23T09:05:38.412Z,96703.53
2023-02-23T09:06:41.009Z,96702.31
2023-02-23T09:07:46.772Z,96699.78
2023-02-23T09:08:48.351Z,96704.50
2023-02-23T09:09:56.818Z,96694.53
2023-02-23T09:10:58.401Z,96701.53
2023-02-23T09:12:00.753Z,96699.91
2023-02-23T09:13:03.018Z,96698.97
2023-02-23T09:14:04.638Z,96693.66
2023-02-23T09:15:06.959Z,96701.78
2023-02-23T09:16:08.875Z,96696.41
2023-02-23T09:17:10.547Z,96698.31
2023-02-23T09:18:17.429Z,96690.63
2023-02-23T09:19:20.150Z,96690.28
2023-02-23T09:20:26.943Z,96689.63
2023-02-23T09:21:29.990Z,96685.47
2023-02-23T09:22:32.030Z,96686.25
2023-02-23T09:23:35.160Z,96685.97
2023-02-23T09:24:39.328Z,96680.31
2023-02-23T09:25:45.730Z,96679.69
2023-02-23T09:26:48.111Z,96681.97
2023-02-23T09:27:54.209Z,96678.72
2023-02-23T09:28:57.982Z,96683.22
2023-02-23T09:29:59.579Z,96679.00
2023-02-23T09:31:13.144Z,96673.44
2023-02-23T09:32:14.913Z,96670.16
2023-02-23T09:33:17.374Z,96667.47
2023-02-23T09:34:19.923Z,96665.81
2023-02-23T09:35:24.535Z,96670.09
2023-02-23T09:36:26.383Z,96671.28
2023-02-23T09:37:27.956Z,96670.84
2023-02-23T09:38:30.380Z,96667.09
2023-02-23T09:39:38.046Z,96671.19
2023-02-23T09:40:47.619Z,96672.28
2023-02-23T09:42:30.166Z,96663.59
2023-02-23T09:43:56.182Z,96655.41
2023-02-23T09:45:28.111Z,96657.25
2023-02-23T09:46:54.953Z,96651.91
2023-02-23T09:48:16.702Z,96655.66
2023-02-23T09:49:22.176Z,96653.25
2023-02-23T09:50:28.214Z,96649.88
2023-02-23T09:51:37.355Z,96654.66
2023-02-23T09:52:42.614Z,96657.22
2023-02-23T09:53:50.017Z,96658.31
2023-02-23T09:54:52.292Z,96654.78
2023-02-23T09:55:54.850Z,96649.94
2023-02-23T09:56:58.396Z,96648.59
2023-02-23T09:58:21.098Z,96651.75
2023-02-23T09:59:23.230Z,96644.94
2023-02-23T10:00:29.822Z,96650.53
2023-02-23T10:01:52.378Z,96649.94
2023-02-23T10:03:40.722Z,96636.47
2023-02-23T10:04:47.894Z,96646.78
2023-02-23T10:05:59.410Z,96638.50
2023-02-23T10:07:19.726Z,96646.28
2023-02-23T10:08:31.837Z,96639.91
2023-02-23T10:09:33.303Z,96633.28
2023-02-23T10:10:59.820Z,96638.81
2023-02-23T10:12:19.610Z,96627.28
2023-02-23T10:13:45.808Z,96626.72
2023-02-23T10:14:58.534Z,96624.66
2023-02-23T10:16:12.501Z,96624.00
2023-02-23T10:17:34.912Z,96625.63
2023-02-23T10:18:54.914Z,96623.41
2023-02-23T10:20:04.217Z,96619.50
2023-02-23T10:21:25.858Z,96616.94
2023-02-23T10:22:28.877Z,96616.19
2023-02-23T10:23:42.845Z,96610.94
2023-02-23T10:25:00.673Z,96612.66
2023-02-23T10:26:03.743Z,96608.81
2023-02-23T10:27:23.677Z,96610.44
2023-02-23T10:28:27.586Z,96604.06
2023-02-23T10:29:41.287Z,96602.56
2023-02-23T10:30:43.796Z,96604.56
2023-02-23T10:31:50.981Z,96597.25
2023-02-23T10:33:16.579Z,96597.25
2023-02-23T10:34:18.464Z,96591.50
2023-02-23T10:35:21.873Z,96595.97
2023-02-23T10:36:38.273Z,96587.31
2023-02-23T10:37:39.971Z,96584.31
2023-02-23T10:38:41.592Z,96590.72
2023-02-23T10:39:43.207Z,96581.47
2023-02-23T10:40:55.497Z,96585.38
2023-02-23T10:42:06.540Z,96575.44
2023-02-23T10:43:12.824Z,96583.22
2023-02-23T10:44:24.377Z,96573.25
2023-02-23T10:45:28.555Z,96573.28
2023-02-23T10:46:38.584Z,96574.91
2023-02-23T10:47:41.496Z,96568.22
2023-02-23T10:48:44.196Z,96573.25
2023-02-23T10:49:49.125Z,96565.06
2023-02-23T10:50:54.052Z,96566.63
2023-02-23T10:51:58.329Z,96561.25
2023-02-23T10:53:27.692Z,96560.53
2023-02-23T10:54:45.676Z,96556.19
2023-02-23T10:55:59.676Z,96547.34
2023-02-23T10:57:01.834Z,96553.09
2023-02-23T10:58:05.928Z,96544.34
2023-02-23T10:59:20.570Z,96550.22
2023-02-23T11:00:28.747Z,96551.78
2023-02-23T11:02:01.045Z,96553.91
2023-02-23T11:03:24.567Z,96551.19
2023-02-23T11:04:29.376Z,96543.47
2023-02-23T11:05:32.969Z,96544.25
2023-02-23T11:06:43.034Z,96539.91
2023-02-23T11:07:45.230Z,96534.91
2023-02-23T11:08:46.805Z,96532.28
2023-02-23T11:09:49.577Z,96535.59
2023-02-23T11:10:58.915Z,96533.75
2023-02-23T11:12:02.728Z,96531.53
2023-02-23T11:13:04.279Z,96529.63
2023-02-23T11:14:16.972Z,96524.72
2023-02-23T11:15:32.032Z,96527.88
2023-02-23T11:16:41.236Z,96524.81
2023-02-23T11:17:43.147Z,96520.97
2023-02-23T11:18:50.786Z,96526.34
2023-02-23T11:19:59.065Z,96517.78
2023-02-23T11:21:00.780Z,96521.28
2023-02-23T11:22:03.180Z,96509.75
2023-02-23T11:23:16.681Z,96513.28
2023-02-23T11:24:25.074Z,96506.69
2023-02-23T11:25:32.016Z,96506.41
2023-02-23T11:26:42.383Z,96502.19
2023-02-23T11:27:51.548Z,96506.09
2023-02-23T11:28:59.502Z,96506.06
2023-02-23T11:30:06.353Z,96502.59
2023-02-23T11:31:18.941Z,96506.06
2023-02-23T11:32:32.697Z,96499.50
2023-02-23T11:33:36.110Z,96494.50
2023-02-23T11:34:40.901Z,96499.53
2023-02-23T11:35:42.538Z,96496.78
2023-02-23T11:36:44.072Z,96499.06
2023-02-23T11:37:46.093Z,96492.81
2023-02-23T11:38:47.903Z,96496.66
2023-02-23T11:39:58.342Z,96490.44
2023-02-23T11:41:07.242Z,96488.53
2023-02-23T11:42:20.479Z,96486.94
2023-02-23T11:43:22.104Z,96494.22
2023-02-23T11:44:24.097Z,96492.69
2023-02-23T11:45:32.214Z,96483.06
2023-02-23T11:46:37.879Z,96480.41
2023-02-23T11:47:41.419Z,96486.63
2023-02-23T11:48:55.108Z,96478.91
2023-02-23T11:49:56.845Z,96478.56
2023-02-23T11:51:00.225Z,96475.91
2023-02-23T11:52:03.067Z,96470.50
2023-02-23T11:53:17.849Z,96472.13
2023-02-23T11:54:28.631Z,96471.34
2023-02-23T11:55:31.949Z,96470.56
2023-02-23T11:56:35.404Z,96470.16
2023-02-23T11:57:37.199Z,96465.16
2023-02-23T11:58:49.744Z,96469.44
2023-02-23T11:59:52.231Z,96465.66
2023-02-23T12:01:03.746Z,96464.47
2023-02-23T12:02:19.161Z,96463.75
2023-02-23T12:03:23.218Z,96459.13
2023-02-23T12:04:33.436Z,96462.25
2023-02-23T12:05:35.513Z,96454.13
2023-02-23T12:06:41.844Z,96457.66
2023-02-23T12:07:59.853Z,96455.72
2023-02-23T12:09:27.974Z,96453.03
2023-02-23T12:10:42.997Z,96448.75
2023-02-23T12:11:51.270Z,96449.16
2023-02-23T12:13:16.888Z,96443.75
2023-02-23T12:14:21.332Z,96442.97
2023-02-23T12:15:45.718Z,96442.22
2023-02-23T12:16:53.496Z,96439.94
2023-02-23T12:18:00.595Z,96442.25
2023-02-23T12:19:20.642Z,96441.09
2023-02-23T12:20:27.230Z,96441.06
2023-02-23T12:21:45.500Z,96432.94
2023-02-23T12:22:54.241Z,96437.19
2023-02-23T12:24:05.484Z,96435.22
2023-02-23T12:25:34.028Z,96436.41
2023-02-23T12:26:46.858Z,96425.94
2023-02-23T12:28:18.825Z,96432.94
2023-02-23T12:29:30.414Z,96428.69
2023-02-23T12:30:54.810Z,96420.19
2023-02-23T12:32:05.774Z,96421.34
2023-02-23T12:33:30.131Z,96422.88
2023-02-23T12:34:44.444Z,96423.69
2023-02-23T12:35:49.447Z,96422.13
2023-02-23T12:36:57.913Z,96425.19
2023-02-23T12:38:12.669Z,96415.53
2023-02-23T12:39:27.962Z,96415.94
2023-02-23T12:40:34.411Z,96415.53
2023-02-23T12:41:51.538Z,96412.06
2023-02-23T12:43:14.813Z,96416.69
2023-02-23T12:44:22.227Z,96417.06
2023-02-23T12:45:37.198Z,96412.84
2023-02-23T12:46:47.571Z,96415.16
2023-02-23T12:48:03.068Z,96420.59
2023-02-23T12:49:05.279Z,96415.97
2023-02-23T12:50:45.841Z,96417.50
2023-02-23T12:51:55.685Z,96410.13
2023-02-23T12:53:08.181Z,96404.69
2023-02-23T12:54:12.708Z,96405.09
2023-02-23T12:55:14.614Z,96404.28
2023-02-23T12:56:47.131Z,96406.22
2023-02-23T12:58:07.870Z,96392.66
2023-02-23T12:59:21.965Z,96393.81
2023-02-23T13:00:50.426Z,96398.09
2023-02-23T13:02:02.929Z,96390.72
2023-02-23T13:03:13.795Z,96390.34
2023-02-23T13:04:42.871Z,96392.63
2023-02-23T13:06:04.120Z,96395.72
2023-02-23T13:07:19.713Z,96401.59
2023-02-23T13:08:34.244Z,96385.28
2023-02-23T13:09:41.487Z,96386.03
2023-02-23T13:11:07.511Z,96379.81
2023-02-23T13:12:14.865Z,96383.31
2023-02-23T13:13:45.754Z,96390.31
2023-02-23T13:15:00.517Z,96391.84
2023-02-23T13:16:17.189Z,96388.72